createdAt,value
2023-04-12T00:00:42.833Z,2.60
2023-04-12T00:03:10.523Z,2.57
2023-04-12T00:05:38.119Z,2.48
2023-04-12T00:08:06.201Z,2.51
2023-04-12T00:10:33.612Z,2.52
2023-04-12T00:13:02.611Z,2.53
2023-04-12T00:15:30.040Z,2.55
2023-04-12T00:17:57.567Z,2.48
2023-04-12T00:20:25.114Z,2.52
2023-04-12T00:22:53.800Z,2.63
2023-04-12T00:25:21.528Z,2.69
2023-04-12T00:27:49.114Z,2.70
2023-04-12T00:30:17.941Z,2.78
2023-04-12T00:32:45.600Z,2.86
2023-04-12T00:35:13.020Z,2.94
2023-04-12T00:37:40.524Z,3.01
2023-04-12T00:40:10.217Z,3.08
2023-04-12T00:42:38.461Z,3.08
2023-04-12T00:45:07.703Z,3.19
2023-04-12T00:47:38.173Z,3.20
2023-04-12T00:50:06.785Z,3.25
2023-04-12T00:52:35.453Z,3.35
2023-04-12T00:55:04.596Z,3.17
2023-04-12T00:57:37.614Z,3.22
2023-04-12T01:00:05.944Z,3.21
2023-04-12T01:02:35.140Z,3.11
2023-04-12T01:05:04.106Z,3.17
2023-04-12T01:07:44.808Z,3.19
2023-04-12T01:10:27.819Z,3.15
2023-04-12T01:13:06.261Z,3.15
2023-04-12T01:15:38.234Z,3.18
2023-04-12T01:18:09.735Z,3.14
2023-04-12T01:20:44.477Z,3.25
2023-04-12T01:23:29.280Z,3.28
2023-04-12T01:26:10.816Z,3.40
2023-04-12T01:28:43.360Z,3.39
2023-04-12T01:31:12.799Z,3.38
2023-04-12T01:33:44.135Z,3.37
2023-04-12T01:36:14.307Z,3.52
2023-04-12T01:38:45.391Z,3.41
2023-04-12T01:41:13.676Z,3.59
2023-04-12T01:43:43.431Z,3.66
2023-04-12T01:46:11.787Z,3.75
2023-04-12T01:48:39.969Z,3.87
2023-04-12T01:51:11.596Z,3.86
2023-04-12T01:53:48.380Z,3.83
2023-04-12T01:56:17.853Z,3.88
2023-04-12T01:58:49.483Z,3.82
2023-04-12T02:01:19.859Z,3.96
2023-04-12T02:03:49.695Z,3.97
2023-04-12T02:06:19.772Z,4.14
2023-04-12T02:08:47.809Z,4.15
2023-04-12T02:11:15.594Z,4.25
2023-04-12T02:13:42.957Z,4.24
2023-04-12T02:16:13.871Z,4.19
2023-04-12T02:18:42.176Z,4.34
2023-04-12T02:21:09.745Z,4.47
2023-04-12T02:23:37.120Z,4.54
2023-04-12T02:26:04.551Z,4.60
2023-04-12T02:28:33.843Z,4.59
2023-04-12T02:31:01.521Z,4.68
2023-04-12T02:33:31.301Z,4.70
2023-04-12T02:35:59.319Z,4.73
2023-04-12T02:38:26.984Z,4.63
2023-04-12T02:40:54.363Z,4.76
2023-04-12T02:43:23.943Z,4.80
2023-04-12T02:45:51.631Z,4.95
2023-04-12T02:48:19.038Z,5.03
2023-04-12T02:50:47.722Z,5.20
2023-04-12T02:53:16.662Z,5.31
2023-04-12T02:55:44.651Z,5.56
2023-04-12T02:58:12.760Z,5.91
2023-04-12T03:00:42.292Z,6.09
2023-04-12T03:03:09.881Z,6.21
2023-04-12T03:05:37.967Z,6.28
2023-04-12T03:08:07.021Z,6.40
2023-04-12T03:10:34.407Z,6.54
2023-04-12T03:13:01.868Z,6.68
2023-04-12T03:15:29.439Z,6.74
2023-04-12T03:17:56.889Z,6.95
2023-04-12T03:20:25.277Z,6.98
2023-04-12T03:22:52.642Z,7.12
2023-04-12T03:25:21.334Z,7.10
2023-04-12T03:27:48.744Z,7.21
2023-04-12T03:30:16.181Z,7.11
2023-04-12T03:32:46.880Z,7.02
2023-04-12T03:35:14.575Z,6.95
2023-04-12T03:37:43.766Z,6.89
2023-04-12T03:40:11.753Z,7.12
2023-04-12T03:42:40.577Z,7.35
2023-04-12T03:45:08.937Z,7.51
2023-04-12T03:47:37.093Z,7.70
2023-04-12T03:50:11.380Z,7.78
2023-04-12T03:52:39.742Z,7.83
2023-04-12T03:55:08.254Z,7.77
2023-04-12T03:57:35.827Z,7.78
2023-04-12T04:00:05.959Z,7.73
2023-04-12T04:02:33.511Z,7.63
2023-04-12T04:05:02.397Z,7.68
2023-04-12T04:07:29.915Z,7.65
2023-04-12T04:09:57.491Z,7.69
2023-04-12T04:12:24.953Z,7.54
2023-04-12T04:14:52.310Z,7.42
2023-04-12T04:17:21.065Z,7.44
2023-04-12T04:19:52.590Z,7.61
2023-04-12T04:22:21.464Z,7.44
2023-04-12T04:24:50.069Z,7.46
2023-04-12T04:27:17.490Z,7.38
2023-04-12T04:29:45.566Z,7.51
2023-04-12T04:32:13.389Z,7.49
2023-04-12T04:34:42.204Z,7.42
2023-04-12T04:37:09.740Z,7.40
2023-04-12T04:39:38.863Z,7.52
2023-04-12T04:42:06.895Z,7.55
2023-04-12T04:44:36.098Z,7.68
2023-04-12T04:47:04.940Z,7.76
2023-04-12T04:49:33.656Z,7.88
2023-04-12T04:52:02.355Z,7.88
2023-04-12T04:54:33.779Z,7.86
2023-04-12T04:57:01.581Z,7.92
2023-04-12T04:59:28.981Z,7.86
2023-04-12T05:01:56.360Z,7.97
2023-04-12T05:04:23.892Z,7.88
2023-04-12T05:06:51.393Z,7.82
2023-04-12T05:09:20.069Z,7.75
2023-04-12T05:11:47.493Z,7.70
2023-04-12T05:14:14.922Z,7.79
2023-04-12T05:16:42.417Z,7.89
2023-04-12T05:19:10.047Z,8.02
2023-04-12T05:21:37.545Z,8.16
2023-04-12T05:24:05.246Z,8.31
2023-04-12T05:26:34.301Z,8.39
2023-04-12T05:29:02.095Z,8.38
2023-04-12T05:31:29.591Z,8.31
2023-04-12T05:33:56.994Z,8.29
2023-04-12T05:36:24.353Z,8.38
2023-04-12T05:38:52.259Z,8.62
2023-04-12T05:41:20.814Z,8.87
2023-04-12T05:43:49.682Z,9.19
2023-04-12T05:46:17.141Z,9.53
2023-04-12T05:48:44.684Z,9.98
2023-04-12T05:51:12.060Z,10.39
2023-04-12T05:53:39.408Z,10.69
2023-04-12T05:56:07.625Z,11.10
2023-04-12T05:58:35.029Z,11.37
2023-04-12T06:01:04.310Z,11.44
2023-04-12T06:03:32.226Z,11.54
2023-04-12T06:05:59.760Z,11.40
2023-04-12T06:08:29.421Z,11.52
2023-04-12T06:10:56.838Z,11.32
2023-04-12T06:13:24.402Z,11.31
2023-04-12T06:15:52.025Z,10.93
2023-04-12T06:18:20.740Z,10.76
2023-04-12T06:20:48.188Z,10.61
2023-04-12T06:23:21.629Z,10.26
2023-04-12T06:25:53.448Z,10.56
2023-04-12T06:28:20.872Z,10.50
2023-04-12T06:30:48.264Z,10.34
2023-04-12T06:33:15.907Z,10.39
2023-04-12T06:35:44.633Z,10.44
2023-04-12T06:38:12.071Z,10.20
2023-04-12T06:40:39.815Z,10.29
2023-04-12T06:43:07.306Z,10.26
2023-04-12T06:45:34.692Z,10.27
2023-04-12T06:48:02.177Z,10.39
2023-04-12T06:50:29.559Z,10.52
2023-04-12T06:52:58.294Z,10.88
2023-04-12T06:55:27.065Z,11.19
2023-04-12T06:57:54.460Z,11.28
2023-04-12T07:00:22.499Z,11.36
2023-04-12T07:02:49.971Z,11.64
2023-04-12T07:05:17.633Z,11.34
2023-04-12T07:07:45.463Z,11.60
2023-04-12T07:10:14.335Z,11.27
2023-04-12T07:12:42.435Z,11.33
2023-04-12T07:15:10.527Z,11.21
2023-04-12T07:17:41.010Z,11.02
2023-04-12T07:20:09.549Z,11.06
2023-04-12T07:22:39.044Z,11.02
2023-04-12T07:25:10.131Z,10.82
2023-04-12T07:27:39.161Z,10.60
2023-04-12T07:30:11.799Z,10.63
2023-04-12T07:32:39.296Z,10.64
2023-04-12T07:35:07.675Z,10.69
2023-04-12T07:37:35.335Z,10.53
2023-04-12T07:40:04.211Z,10.45
2023-04-12T07:42:31.676Z,10.26
2023-04-12T07:45:01.764Z,10.25
2023-04-12T07:47:30.340Z,10.11
2023-04-12T07:49:58.829Z,9.81
2023-04-12T07:52:27.537Z,9.68
2023-04-12T07:54:55.415Z,9.67
2023-04-12T07:57:23.429Z,9.62
2023-04-12T07:59:51.137Z,9.66
2023-04-12T08:02:26.071Z,9.52
2023-04-12T08:04:55.734Z,9.61
2023-04-12T08:07:24.645Z,9.49
2023-04-12T08:09:52.098Z,9.47
2023-04-12T08:12:21.190Z,9.46
2023-04-12T08:14:51.161Z,9.47
2023-04-12T08:17:19.886Z,9.50
2023-04-12T08:19:47.360Z,9.60
2023-04-12T08:22:15.062Z,9.57
2023-04-12T08:24:42.653Z,9.25
2023-04-12T08:27:13.882Z,9.12
2023-04-12T08:29:41.438Z,9.06
2023-04-12T08:32:12.557Z,9.01
2023-04-12T08:34:43.709Z,8.98
2023-04-12T08:37:16.293Z,8.85
2023-04-12T08:39:43.808Z,8.94
2023-04-12T08:42:11.290Z,9.00
2023-04-12T08:44:45.535Z,9.06
2023-04-12T08:47:13.158Z,8.97
2023-04-12T08:49:45.832Z,9.06
2023-04-12T08:52:14.962Z,9.18
2023-04-12T08:54:42.375Z,9.27
2023-04-12T08:57:10.311Z,9.33
2023-04-12T08:59:39.100Z,9.23
2023-04-12T09:02:06.739Z,9.50
2023-04-12T09:04:50.480Z,9.56
2023-04-12T09:07:23.866Z,9.86
2023-04-12T09:09:59.487Z,9.79
2023-04-12T09:12:28.531Z,9.88
2023-04-12T09:15:13.931Z,10.14
2023-04-12T09:17:47.536Z,10.04
2023-04-12T09:20:29.347Z,10.45
2023-04-12T09:23:05.108Z,10.54
2023-04-12T09:25:47.237Z,10.62
2023-04-12T09:28:24.497Z,10.40
2023-04-12T09:30:54.036Z,10.40
2023-04-12T09:33:23.021Z,10.32
2023-04-12T09:35:53.119Z,10.01
2023-04-12T09:38:22.576Z,10.07
2023-04-12T09:40:54.967Z,9.99
2023-04-12T09:43:37.003Z,10.01
2023-04-12T09:46:11.641Z,9.83
2023-04-12T09:48:39.531Z,9.72
2023-04-12T09:51:10.656Z,9.55
2023-04-12T09:53:43.933Z,9.68
2023-04-12T09:56:16.017Z,9.89
2023-04-12T09:58:45.841Z,9.95
2023-04-12T10:01:17.725Z,10.03
2023-04-12T10:03:48.579Z,10.19
2023-04-12T10:06:18.320Z,10.24
2023-04-12T10:08:47.706Z,10.08
2023-04-12T10:11:15.836Z,10.28
2023-04-12T10:13:44.145Z,10.36
2023-04-12T10:16:12.644Z,10.53
2023-04-12T10:18:40.552Z,10.66
2023-04-12T10:21:08.791Z,10.91
2023-04-12T10:23:36.330Z,10.77
2023-04-12T10:26:06.168Z,10.82
2023-04-12T10:28:33.562Z,10.89
2023-04-12T10:31:01.230Z,10.89
2023-04-12T10:33:30.712Z,10.94
2023-04-12T10:36:02.908Z,10.85
2023-04-12T10:38:37.335Z,10.84
2023-04-12T10:41:12.811Z,10.97
2023-04-12T10:43:40.569Z,11.20
2023-04-12T10:46:08.019Z,11.23
2023-04-12T10:48:36.466Z,11.26
2023-04-12T10:51:14.974Z,11.07
2023-04-12T10:53:42.675Z,11.23
2023-04-12T10:56:40.738Z,11.63
2023-04-12T10:59:09.155Z,11.45
2023-04-12T11:01:38.897Z,11.43
2023-04-12T11:04:13.968Z,11.38
2023-04-12T11:06:49.281Z,11.46
2023-04-12T11:09:21.866Z,11.35
2023-04-12T11:11:50.673Z,11.15
2023-04-12T11:14:19.028Z,11.25
2023-04-12T11:17:19.846Z,11.51
2023-04-12T11:19:52.242Z,11.79
2023-04-12T11:22:21.133Z,11.98
2023-04-12T11:24:50.455Z,11.74
2023-04-12T11:27:20.401Z,11.86
2023-04-12T11:29:49.878Z,11.59
2023-04-12T11:32:19.483Z,11.67
2023-04-12T11:34:48.225Z,11.50
2023-04-12T11:37:15.809Z,11.50
2023-04-12T11:39:45.097Z,11.38
2023-04-12T11:42:17.047Z,11.50
2023-04-12T11:47:18.510Z,11.58
2023-04-12T11:49:48.806Z,11.84
2023-04-12T11:52:16.996Z,11.72
2023-04-12T11:54:45.694Z,11.62
2023-04-12T11:57:14.838Z,11.64
2023-04-12T11:59:46.527Z,11.78
2023-04-12T12:02:22.559Z,11.84
2023-04-12T12:04:51.914Z,12.01
2023-04-12T12:07:21.900Z,12.49
2023-04-12T12:09:51.118Z,13.60
2023-04-12T12:12:19.256Z,13.94
2023-04-12T12:14:48.244Z,13.84
2023-04-12T12:17:17.424Z,12.96
2023-04-12T12:19:47.008Z,12.67
2023-04-12T12:22:18.196Z,12.39
2023-04-12T12:24:46.874Z,12.57
2023-04-12T12:27:14.571Z,12.15
2023-04-12T12:29:42.395Z,12.50
2023-04-12T12:32:14.833Z,12.54
2023-04-12T12:34:44.873Z,12.78
2023-04-12T12:37:14.185Z,12.66
2023-04-12T12:40:00.970Z,12.91
2023-04-12T12:42:29.054Z,12.90
2023-04-12T12:44:59.201Z,12.54
2023-04-12T12:47:28.116Z,12.50
2023-04-12T12:49:55.493Z,12.51
2023-04-12T12:52:22.936Z,12.49
2023-04-12T12:54:50.357Z,12.77
2023-04-12T12:57:17.724Z,12.99
2023-04-12T12:59:45.248Z,12.77
2023-04-12T13:02:15.506Z,12.65
2023-04-12T13:04:44.655Z,12.99
2023-04-12T13:07:12.178Z,13.19
2023-04-12T13:09:39.540Z,13.21
2023-04-12T13:12:06.995Z,12.92
2023-04-12T13:14:34.381Z,13.18
2023-04-12T13:17:01.766Z,13.27
2023-04-12T13:19:29.120Z,13.53
2023-04-12T13:21:58.100Z,13.70
2023-04-12T13:24:25.647Z,13.52
2023-04-12T13:26:53.021Z,13.48
2023-04-12T13:29:20.393Z,13.23
2023-04-12T13:31:47.802Z,12.74
2023-04-12T13:34:15.714Z,12.76
2023-04-12T13:36:44.634Z,12.79
2023-04-12T13:39:13.349Z,12.82
2023-04-12T13:41:40.690Z,12.96
2023-04-12T13:44:08.083Z,13.16
2023-04-12T13:46:36.651Z,13.39
2023-04-12T13:49:04.091Z,13.67
2023-04-12T13:51:32.534Z,13.48
2023-04-12T13:54:00.213Z,13.59
2023-04-12T13:56:31.791Z,13.87
2023-04-12T13:58:59.711Z,13.77
2023-04-12T14:01:27.387Z,14.19
2023-04-12T14:03:55.645Z,14.71
2023-04-12T14:06:22.993Z,14.67
2023-04-12T14:08:51.022Z,14.23
2023-04-12T14:11:18.390Z,13.97
2023-04-12T14:13:47.051Z,14.22
2023-04-12T14:16:14.418Z,14.65
2023-04-12T14:18:41.859Z,14.67
2023-04-12T14:21:10.329Z,15.34
2023-04-12T14:23:37.674Z,16.14
2023-04-12T14:26:05.324Z,16.37
2023-04-12T14:28:33.498Z,15.72
2023-04-12T14:31:04.352Z,15.37
2023-04-12T14:33:33.985Z,15.48
2023-04-12T14:36:04.920Z,15.35
2023-04-12T14:38:32.552Z,15.15
2023-04-12T14:41:00.015Z,15.16
2023-04-12T14:43:28.513Z,14.92
2023-04-12T14:45:56.062Z,14.86
2023-04-12T14:48:25.004Z,14.28
2023-04-12T14:50:52.545Z,13.94
2023-04-12T14:53:21.016Z,13.92
2023-04-12T14:55:48.654Z,13.80
2023-04-12T14:58:16.264Z,13.50
2023-04-12T15:00:43.697Z,13.29
2023-04-12T15:03:11.391Z,12.89
2023-04-12T15:05:40.213Z,12.49
2023-04-12T15:08:07.829Z,12.34
2023-04-12T15:10:35.233Z,12.30
2023-04-12T15:13:02.594Z,12.12
2023-04-12T15:15:30.078Z,11.91
2023-04-12T15:17:57.488Z,11.72
2023-04-12T15:20:24.867Z,11.53
2023-04-12T15:22:53.560Z,11.35
2023-04-12T15:25:22.034Z,11.38
2023-04-12T15:27:52.028Z,11.70
2023-04-12T15:30:19.385Z,12.48
2023-04-12T15:32:47.163Z,13.12
2023-04-12T15:35:26.154Z,13.26
2023-04-12T15:37:55.878Z,13.04
2023-04-12T15:40:24.149Z,12.89
2023-04-12T15:42:51.559Z,12.85
2023-04-12T15:45:18.927Z,13.05
2023-04-12T15:47:46.879Z,13.14
2023-04-12T15:50:14.298Z,13.23
2023-04-12T15:52:42.990Z,13.77
2023-04-12T15:55:12.530Z,13.83
2023-04-12T15:57:40.062Z,14.00
2023-04-12T16:00:20.842Z,14.15
2023-04-12T16:02:53.353Z,13.88
2023-04-12T16:05:21.310Z,13.77
2023-04-12T16:07:50.893Z,13.68
2023-04-12T16:10:22.222Z,13.37
2023-04-12T16:12:50.720Z,13.32
2023-04-12T16:15:22.228Z,13.16
2023-04-12T16:17:53.050Z,12.86
2023-04-12T16:20:21.639Z,12.40
2023-04-12T16:22:49.882Z,12.12
2023-04-12T16:25:17.718Z,11.92
2023-04-12T16:27:46.493Z,11.90
2023-04-12T16:30:15.572Z,11.66
2023-04-12T16:32:43.276Z,11.17
2023-04-12T16:35:10.698Z,10.83
2023-04-12T16:37:38.690Z,10.69
2023-04-12T16:40:10.347Z,10.62
2023-04-12T16:42:37.692Z,10.66
2023-04-12T16:45:10.183Z,10.63
2023-04-12T16:47:38.061Z,10.72
2023-04-12T16:50:08.554Z,10.73
2023-04-12T16:52:37.540Z,10.65
2023-04-12T16:55:05.818Z,10.76
2023-04-12T16:57:33.671Z,10.95
2023-04-12T17:00:01.070Z,11.36
2023-04-12T17:02:29.897Z,11.27
2023-04-12T17:04:57.361Z,11.01
2023-04-12T17:07:24.741Z,10.89
2023-04-12T17:09:52.084Z,10.71
2023-04-12T17:12:19.421Z,10.59
2023-04-12T17:14:47.275Z,10.54
2023-04-12T17:17:14.843Z,10.33
2023-04-12T17:19:45.478Z,9.98
2023-04-12T17:22:12.878Z,9.63
2023-04-12T17:24:40.933Z,9.55
2023-04-12T17:27:08.550Z,9.44
2023-04-12T17:29:35.936Z,9.45
2023-04-12T17:32:04.067Z,9.52
2023-04-12T17:34:31.534Z,9.63
2023-04-12T17:37:01.363Z,9.63
2023-04-12T17:39:28.698Z,9.70
2023-04-12T17:41:57.922Z,9.78
2023-04-12T17:44:26.420Z,9.44
2023-04-12T17:46:53.903Z,9.05
2023-04-12T17:49:22.163Z,8.81
2023-04-12T17:51:49.519Z,8.67
2023-04-12T17:54:18.186Z,8.51
2023-04-12T17:56:45.529Z,8.46
2023-04-12T17:59:13.511Z,8.44
2023-04-12T18:01:42.163Z,8.43
2023-04-12T18:04:09.809Z,8.40
2023-04-12T18:06:39.087Z,8.39
2023-04-12T18:09:07.083Z,8.41
2023-04-12T18:11:38.598Z,8.37
2023-04-12T18:14:06.470Z,8.37
2023-04-12T18:16:33.912Z,8.35
2023-04-12T18:19:03.370Z,8.31
2023-04-12T18:21:31.956Z,8.33
2023-04-12T18:23:59.694Z,8.31
2023-04-12T18:26:27.512Z,8.34
2023-04-12T18:28:56.427Z,8.30
2023-04-12T18:31:24.406Z,8.22
2023-04-12T18:33:51.963Z,8.26
2023-04-12T18:36:19.306Z,8.21
2023-04-12T18:38:46.978Z,8.09
2023-04-12T18:41:15.453Z,7.96
2023-04-12T18:43:42.922Z,7.84
2023-04-12T18:46:17.763Z,7.74
2023-04-12T18:48:47.798Z,7.60
2023-04-12T18:51:15.648Z,7.47
2023-04-12T18:53:43.075Z,7.38
2023-04-12T18:56:11.164Z,7.30
2023-04-12T18:58:53.816Z,7.25
2023-04-12T19:01:24.914Z,7.31
2023-04-12T19:03:52.819Z,7.26
2023-04-12T19:06:20.527Z,7.08
2023-04-12T19:08:49.601Z,6.93
2023-04-12T19:11:16.994Z,6.76
2023-04-12T19:13:44.359Z,6.74
2023-04-12T19:16:12.449Z,6.68
2023-04-12T19:18:41.310Z,6.60
2023-04-12T19:21:08.673Z,6.47
2023-04-12T19:23:36.985Z,6.46
2023-04-12T19:26:05.516Z,6.35
2023-04-12T19:28:34.296Z,5.96
2023-04-12T19:31:05.235Z,5.80
2023-04-12T19:33:32.622Z,5.67
2023-04-12T19:36:01.715Z,5.64
2023-04-12T19:38:29.187Z,5.61
2023-04-12T19:40:56.545Z,5.45
2023-04-12T19:43:25.373Z,5.30
2023-04-12T19:45:53.256Z,5.25
2023-04-12T19:48:20.812Z,5.25
2023-04-12T19:50:48.988Z,5.14
2023-04-12T19:53:18.182Z,5.08
2023-04-12T19:55:45.706Z,5.03
2023-04-12T19:58:13.463Z,5.01
2023-04-12T20:00:41.107Z,4.96
2023-04-12T20:03:09.215Z,4.84
2023-04-12T20:05:37.517Z,4.87
2023-04-12T20:08:04.889Z,4.82
2023-04-12T20:10:33.574Z,4.75
2023-04-12T20:13:01.021Z,4.83
2023-04-12T20:15:28.390Z,4.66
2023-04-12T20:17:56.583Z,4.67
2023-04-12T20:20:23.961Z,4.86
2023-04-12T20:22:52.626Z,5.08
2023-04-12T20:25:21.003Z,5.14
2023-04-12T20:27:52.176Z,5.09
2023-04-12T20:30:20.764Z,5.20
2023-04-12T20:32:48.663Z,5.18
2023-04-12T20:35:17.907Z,5.18
2023-04-12T20:37:49.422Z,5.20
2023-04-12T20:40:17.020Z,5.21
2023-04-12T20:42:45.171Z,5.21
2023-04-12T20:45:17.654Z,5.23
2023-04-12T20:47:45.128Z,5.26
2023-04-12T20:50:12.558Z,5.28
2023-04-12T20:52:40.068Z,5.31
2023-04-12T20:55:08.032Z,5.30
2023-04-12T20:57:35.846Z,5.32
2023-04-12T21:00:12.360Z,5.34
2023-04-12T21:02:41.189Z,5.39
2023-04-12T21:05:08.898Z,5.38
2023-04-12T21:07:36.371Z,5.29
2023-04-12T21:10:03.893Z,5.21
2023-04-12T21:12:32.215Z,5.33
2023-04-12T21:15:00.651Z,5.26
2023-04-12T21:17:29.951Z,5.23
2023-04-12T21:19:59.070Z,5.13
2023-04-12T21:22:26.561Z,5.25
2023-04-12T21:24:54.270Z,5.19
2023-04-12T21:27:21.613Z,5.15
2023-04-12T21:29:50.055Z,5.01
2023-04-12T21:32:17.591Z,5.08
2023-04-12T21:34:45.287Z,5.06
2023-04-12T21:37:13.992Z,5.06
2023-04-12T21:39:43.429Z,4.77
2023-04-12T21:42:10.920Z,4.48
2023-04-12T21:44:39.524Z,4.22
2023-04-12T21:47:06.865Z,4.25
2023-04-12T21:49:34.411Z,4.22
2023-04-12T21:52:01.796Z,4.16
2023-04-12T21:54:31.353Z,4.17
2023-04-12T21:56:58.711Z,4.05
2023-04-12T21:59:26.368Z,4.02
2023-04-12T22:01:53.813Z,4.02
2023-04-12T22:04:21.287Z,3.86
2023-04-12T22:06:50.736Z,3.78
2023-04-12T22:09:18.622Z,3.68
2023-04-12T22:11:48.958Z,3.64
2023-04-12T22:14:16.341Z,3.62
2023-04-12T22:16:44.029Z,3.59
2023-04-12T22:19:11.628Z,3.56
2023-04-12T22:21:40.030Z,3.52
2023-04-12T22:24:08.093Z,3.55
2023-04-12T22:26:35.521Z,3.59
2023-04-12T22:29:04.367Z,3.60
2023-04-12T22:31:33.817Z,3.42
2023-04-12T22:34:01.672Z,3.49
2023-04-12T22:36:29.698Z,3.38
2023-04-12T22:38:57.280Z,3.33
2023-04-12T22:41:29.017Z,3.37
2023-04-12T22:44:02.778Z,3.26
2023-04-12T22:46:32.767Z,3.21
2023-04-12T22:49:01.302Z,3.09
2023-04-12T22:51:28.685Z,2.98
2023-04-12T22:53:56.689Z,2.95
2023-04-12T22:56:25.363Z,2.78
2023-04-12T22:58:53.652Z,2.68
2023-04-12T23:01:21.415Z,2.53
2023-04-12T23:03:50.163Z,2.52
2023-04-12T23:06:19.561Z,2.63
2023-04-12T23:08:49.482Z,2.62
2023-04-12T23:11:16.837Z,2.71
2023-04-12T23:13:44.226Z,2.85
2023-04-12T23:16:11.660Z,2.91
2023-04-12T23:18:39.611Z,2.83
2023-04-12T23:21:10.990Z,2.91
2023-04-12T23:23:38.504Z,2.90
2023-04-12T23:26:06.390Z,2.82
2023-04-12T23:28:34.305Z,3.02
2023-04-12T23:31:01.814Z,2.91
2023-04-12T23:33:29.514Z,2.95
2023-04-12T23:35:56.983Z,2.95
2023-04-12T23:38:31.891Z,2.92
2023-04-12T23:41:00.337Z,2.76
2023-04-12T23:43:28.165Z,2.74
2023-04-12T23:45:55.906Z,2.63
2023-04-12T23:48:24.238Z,2.58
2023-04-12T23:50:52.056Z,2.52
2023-04-12T23:53:20.420Z,2.45
2023-04-12T23:55:50.971Z,2.35
2023-04-12T23:58:19.386Z,2.25
